sensor_id;sensor_type;location;lat;lon;timestamp;temperature;humidity
11152;DHT22;5630;49.342;10.802;2024-03-25T00:01:42;4.60;99.90
11152;DHT22;5630;49.342;10.802;2024-03-25T00:04:07;4.60;99.90
11152;DHT22;5630;49.342;10.802;2024-03-25T00:06:33;4.70;99.90
11152;DHT22;5630;49.342;10.802;2024-03-25T00:09:03;4.60;99.90
11152;DHT22;5630;49.342;10.802;2024-03-25T00:11:29;4.70;99.90
11152;DHT22;5630;49.342;10.802;2024-03-25T00:13:54;4.60;99.90
11152;DHT22;5630;49.342;10.802;2024-03-25T00:16:20;4.60;99.90
11152;DHT22;5630;49.342;10.802;2024-03-25T00:18:46;4.60;99.90
11152;DHT22;5630;49.342;10.802;2024-03-25T00:21:11;4.70;99.90
11152;DHT22;5630;49.342;10.802;2024-03-25T00:23:37;4.60;99.90
11152;DHT22;5630;49.342;10.802;2024-03-25T00:26:03;4.70;99.90
11152;DHT22;5630;49.342;10.802;2024-03-25T00:28:28;4.70;99.90
11152;DHT22;5630;49.342;10.802;2024-03-25T00:30:54;4.70;99.90
11152;DHT22;5630;49.342;10.802;2024-03-25T00:33:20;4.70;99.90
11152;DHT22;5630;49.342;10.802;2024-03-25T00:35:45;4.80;99.90
11152;DHT22;5630;49.342;10.802;2024-03-25T00:38:11;4.70;99.90
11152;DHT22;5630;49.342;10.802;2024-03-25T00:40:37;4.70;99.90
11152;DHT22;5630;49.342;10.802;2024-03-25T00:43:03;4.70;99.90
11152;DHT22;5630;49.342;10.802;2024-03-25T00:45:29;4.70;99.90
11152;DHT22;5630;49.342;10.802;2024-03-25T00:47:56;4.70;99.90
11152;DHT22;5630;49.342;10.802;2024-03-25T00:50:22;4.70;99.90
11152;DHT22;5630;49.342;10.802;2024-03-25T00:52:48;4.70;99.90
11152;DHT22;5630;49.342;10.802;2024-03-25T00:55:13;4.70;99.90
11152;DHT22;5630;49.342;10.802;2024-03-25T00:57:40;4.70;99.90
11152;DHT22;5630;49.342;10.802;2024-03-25T01:00:06;4.60;99.90
11152;DHT22;5630;49.342;10.802;2024-03-25T01:02:32;4.60;99.90
11152;DHT22;5630;49.342;10.802;2024-03-25T01:04:57;4.70;99.90
11152;DHT22;5630;49.342;10.802;2024-03-25T01:07:25;4.60;99.90
11152;DHT22;5630;49.342;10.802;2024-03-25T01:09:50;4.70;99.90
11152;DHT22;5630;49.342;10.802;2024-03-25T01:12:16;4.70;99.90
11152;DHT22;5630;49.342;10.802;2024-03-25T01:14:41;4.70;99.90
11152;DHT22;5630;49.342;10.802;2024-03-25T01:17:07;4.80;99.90
11152;DHT22;5630;49.342;10.802;2024-03-25T01:19:32;4.80;99.90
11152;DHT22;5630;49.342;10.802;2024-03-25T01:21:58;4.80;99.90
11152;DHT22;5630;49.342;10.802;2024-03-25T01:24:24;4.70;99.90
11152;DHT22;5630;49.342;10.802;2024-03-25T01:26:50;4.80;99.90
11152;DHT22;5630;49.342;10.802;2024-03-25T01:29:16;4.70;99.90
11152;DHT22;5630;49.342;10.802;2024-03-25T01:31:42;4.70;99.90
11152;DHT22;5630;49.342;10.802;2024-03-25T01:34:08;4.70;99.90
11152;DHT22;5630;49.342;10.802;2024-03-25T01:36:33;4.70;99.90
11152;DHT22;5630;49.342;10.802;2024-03-25T01:39:00;4.70;99.90
11152;DHT22;5630;49.342;10.802;2024-03-25T01:41:26;4.70;99.90
11152;DHT22;5630;49.342;10.802;2024-03-25T01:43:52;4.80;99.90
11152;DHT22;5630;49.342;10.802;2024-03-25T01:46:18;4.70;99.90
11152;DHT22;5630;49.342;10.802;2024-03-25T01:48:45;4.70;99.90
11152;DHT22;5630;49.342;10.802;2024-03-25T01:51:13;4.70;99.90
11152;DHT22;5630;49.342;10.802;2024-03-25T01:53:40;4.70;99.90
11152;DHT22;5630;49.342;10.802;2024-03-25T01:56:06;4.70;99.90
11152;DHT22;5630;49.342;10.802;2024-03-25T01:58:33;4.80;99.90
11152;DHT22;5630;49.342;10.802;2024-03-25T02:00:58;4.80;99.90
11152;DHT22;5630;49.342;10.802;2024-03-25T02:03:27;4.70;99.90
11152;DHT22;5630;49.342;10.802;2024-03-25T02:05:58;4.70;99.90
11152;DHT22;5630;49.342;10.802;2024-03-25T02:08:26;4.70;99.90
11152;DHT22;5630;49.342;10.802;2024-03-25T02:10:54;4.70;99.90
11152;DHT22;5630;49.342;10.802;2024-03-25T02:13:21;4.80;99.90
11152;DHT22;5630;49.342;10.802;2024-03-25T02:15:46;4.80;99.90
11152;DHT22;5630;49.342;10.802;2024-03-25T02:18:12;4.70;99.90
11152;DHT22;5630;49.342;10.802;2024-03-25T02:20:38;4.70;99.90
11152;DHT22;5630;49.342;10.802;2024-03-25T02:23:04;4.70;99.90
11152;DHT22;5630;49.342;10.802;2024-03-25T02:25:31;4.70;99.90
11152;DHT22;5630;49.342;10.802;2024-03-25T02:27:58;4.60;99.90
11152;DHT22;5630;49.342;10.802;2024-03-25T02:30:23;4.70;99.90
11152;DHT22;5630;49.342;10.802;2024-03-25T02:32:49;4.70;99.90
11152;DHT22;5630;49.342;10.802;2024-03-25T02:35:16;4.70;99.90
11152;DHT22;5630;49.342;10.802;2024-03-25T02:37:42;4.70;99.90
11152;DHT22;5630;49.342;10.802;2024-03-25T02:40:09;4.70;99.90
11152;DHT22;5630;49.342;10.802;2024-03-25T02:42:35;4.70;99.90
11152;DHT22;5630;49.342;10.802;2024-03-25T02:45:02;4.70;99.90
11152;DHT22;5630;49.342;10.802;2024-03-25T02:47:28;4.70;99.90
11152;DHT22;5630;49.342;10.802;2024-03-25T02:49:53;4.70;99.90
11152;DHT22;5630;49.342;10.802;2024-03-25T02:52:19;4.70;99.90
11152;DHT22;5630;49.342;10.802;2024-03-25T02:54:45;4.60;99.90
11152;DHT22;5630;49.342;10.802;2024-03-25T02:57:11;4.60;99.90
11152;DHT22;5630;49.342;10.802;2024-03-25T02:59:36;4.60;99.90
11152;DHT22;5630;49.342;10.802;2024-03-25T03:02:02;4.50;99.90
11152;DHT22;5630;49.342;10.802;2024-03-25T03:04:28;4.50;99.90
11152;DHT22;5630;49.342;10.802;2024-03-25T03:06:53;4.40;99.90
11152;DHT22;5630;49.342;10.802;2024-03-25T03:09:19;4.40;99.90
11152;DHT22;5630;49.342;10.802;2024-03-25T03:11:44;4.40;99.90
11152;DHT22;5630;49.342;10.802;2024-03-25T03:14:10;4.30;99.90
11152;DHT22;5630;49.342;10.802;2024-03-25T03:16:36;4.40;99.90
11152;DHT22;5630;49.342;10.802;2024-03-25T03:19:02;4.30;99.90
11152;DHT22;5630;49.342;10.802;2024-03-25T03:21:27;4.20;99.90
11152;DHT22;5630;49.342;10.802;2024-03-25T03:23:53;4.20;99.90
11152;DHT22;5630;49.342;10.802;2024-03-25T03:26:19;4.20;99.90
11152;DHT22;5630;49.342;10.802;2024-03-25T03:28:44;4.20;99.90
11152;DHT22;5630;49.342;10.802;2024-03-25T03:31:10;4.30;99.90
11152;DHT22;5630;49.342;10.802;2024-03-25T03:33:35;4.10;99.90
11152;DHT22;5630;49.342;10.802;2024-03-25T03:36:01;4.10;99.90
11152;DHT22;5630;49.342;10.802;2024-03-25T03:38:26;4.10;99.90
11152;DHT22;5630;49.342;10.802;2024-03-25T03:41:05;4.10;99.90
11152;DHT22;5630;49.342;10.802;2024-03-25T03:43:32;4.10;99.90
11152;DHT22;5630;49.342;10.802;2024-03-25T03:45:57;4.00;99.90
11152;DHT22;5630;49.342;10.802;2024-03-25T03:48:23;4.10;99.90
11152;DHT22;5630;49.342;10.802;2024-03-25T03:50:48;4.00;99.90
11152;DHT22;5630;49.342;10.802;2024-03-25T03:53:14;4.00;99.90
11152;DHT22;5630;49.342;10.802;2024-03-25T03:55:40;4.00;99.90
11152;DHT22;5630;49.342;10.802;2024-03-25T03:58:05;4.00;99.90
11152;DHT22;5630;49.342;10.802;2024-03-25T04:00:34;3.90;99.90
11152;DHT22;5630;49.342;10.802;2024-03-25T04:03:01;3.90;99.90
11152;DHT22;5630;49.342;10.802;2024-03-25T04:05:30;4.00;99.90
11152;DHT22;5630;49.342;10.802;2024-03-25T04:07:56;3.90;99.90
11152;DHT22;5630;49.342;10.802;2024-03-25T04:10:22;3.90;99.90
11152;DHT22;5630;49.342;10.802;2024-03-25T04:12:48;3.90;99.90
11152;DHT22;5630;49.342;10.802;2024-03-25T04:15:13;3.90;99.90
11152;DHT22;5630;49.342;10.802;2024-03-25T04:17:46;3.90;99.90
11152;DHT22;5630;49.342;10.802;2024-03-25T04:20:14;3.90;99.90
11152;DHT22;5630;49.342;10.802;2024-03-25T04:22:44;3.90;99.90
11152;DHT22;5630;49.342;10.802;2024-03-25T04:25:10;3.90;99.90
11152;DHT22;5630;49.342;10.802;2024-03-25T04:27:42;3.80;99.90
11152;DHT22;5630;49.342;10.802;2024-03-25T04:30:09;3.80;99.90
11152;DHT22;5630;49.342;10.802;2024-03-25T04:32:36;3.80;99.90
11152;DHT22;5630;49.342;10.802;2024-03-25T04:35:03;3.80;99.90
11152;DHT22;5630;49.342;10.802;2024-03-25T04:37:29;3.80;99.90
11152;DHT22;5630;49.342;10.802;2024-03-25T04:39:55;3.80;99.90
11152;DHT22;5630;49.342;10.802;2024-03-25T04:42:21;3.70;99.90
11152;DHT22;5630;49.342;10.802;2024-03-25T04:44:47;3.80;99.90
11152;DHT22;5630;49.342;10.802;2024-03-25T04:47:13;3.70;99.90
11152;DHT22;5630;49.342;10.802;2024-03-25T04:49:40;3.70;99.90
11152;DHT22;5630;49.342;10.802;2024-03-25T04:52:06;3.60;99.90
11152;DHT22;5630;49.342;10.802;2024-03-25T04:54:32;3.60;99.90
11152;DHT22;5630;49.342;10.802;2024-03-25T04:56:57;3.60;99.90
11152;DHT22;5630;49.342;10.802;2024-03-25T04:59:23;3.60;99.90
11152;DHT22;5630;49.342;10.802;2024-03-25T05:01:49;3.60;99.90
11152;DHT22;5630;49.342;10.802;2024-03-25T05:04:14;3.60;99.90
11152;DHT22;5630;49.342;10.802;2024-03-25T05:06:40;3.60;99.90
11152;DHT22;5630;49.342;10.802;2024-03-25T05:09:05;3.60;99.90
11152;DHT22;5630;49.342;10.802;2024-03-25T05:11:32;3.60;99.90
11152;DHT22;5630;49.342;10.802;2024-03-25T05:13:58;3.60;99.90
11152;DHT22;5630;49.342;10.802;2024-03-25T05:16:23;3.50;99.90
11152;DHT22;5630;49.342;10.802;2024-03-25T05:18:49;3.40;99.90
11152;DHT22;5630;49.342;10.802;2024-03-25T05:21:14;3.40;99.90
11152;DHT22;5630;49.342;10.802;2024-03-25T05:23:40;3.50;99.90
11152;DHT22;5630;49.342;10.802;2024-03-25T05:26:05;3.50;99.90
11152;DHT22;5630;49.342;10.802;2024-03-25T05:28:31;3.50;99.90
11152;DHT22;5630;49.342;10.802;2024-03-25T05:30:56;3.40;99.90
11152;DHT22;5630;49.342;10.802;2024-03-25T05:33:22;3.50;99.90
11152;DHT22;5630;49.342;10.802;2024-03-25T05:35:47;3.50;99.90
11152;DHT22;5630;49.342;10.802;2024-03-25T05:38:13;3.50;99.90
11152;DHT22;5630;49.342;10.802;2024-03-25T05:40:38;3.50;99.90
11152;DHT22;5630;49.342;10.802;2024-03-25T05:43:04;3.50;99.90
11152;DHT22;5630;49.342;10.802;2024-03-25T05:45:30;3.50;99.90
11152;DHT22;5630;49.342;10.802;2024-03-25T05:47:55;3.40;99.90
11152;DHT22;5630;49.342;10.802;2024-03-25T05:50:21;3.50;99.90
11152;DHT22;5630;49.342;10.802;2024-03-25T05:52:46;3.50;99.90
11152;DHT22;5630;49.342;10.802;2024-03-25T05:55:12;3.50;99.90
11152;DHT22;5630;49.342;10.802;2024-03-25T05:57:38;3.50;99.90
11152;DHT22;5630;49.342;10.802;2024-03-25T06:00:04;3.60;99.90
11152;DHT22;5630;49.342;10.802;2024-03-25T06:02:29;3.60;99.90
11152;DHT22;5630;49.342;10.802;2024-03-25T06:04:55;3.60;99.90
11152;DHT22;5630;49.342;10.802;2024-03-25T06:07:22;3.60;99.90
11152;DHT22;5630;49.342;10.802;2024-03-25T06:09:48;3.60;99.90
11152;DHT22;5630;49.342;10.802;2024-03-25T06:12:14;4.80;99.90
11152;DHT22;5630;49.342;10.802;2024-03-25T06:14:39;6.20;99.90
11152;DHT22;5630;49.342;10.802;2024-03-25T06:17:05;7.10;99.90
11152;DHT22;5630;49.342;10.802;2024-03-25T06:19:30;7.70;99.90
11152;DHT22;5630;49.342;10.802;2024-03-25T06:21:56;8.10;99.90
11152;DHT22;5630;49.342;10.802;2024-03-25T06:24:21;7.30;99.90
11152;DHT22;5630;49.342;10.802;2024-03-25T06:26:47;7.00;99.90
11152;DHT22;5630;49.342;10.802;2024-03-25T06:29:13;6.60;99.90
11152;DHT22;5630;49.342;10.802;2024-03-25T06:31:39;6.10;99.90
11152;DHT22;5630;49.342;10.802;2024-03-25T06:34:23;6.00;99.90
11152;DHT22;5630;49.342;10.802;2024-03-25T06:36:49;5.70;99.90
11152;DHT22;5630;49.342;10.802;2024-03-25T06:39:15;5.60;99.90
11152;DHT22;5630;49.342;10.802;2024-03-25T06:41:40;5.60;99.90
11152;DHT22;5630;49.342;10.802;2024-03-25T06:44:06;5.40;99.90
11152;DHT22;5630;49.342;10.802;2024-03-25T06:46:32;5.40;99.90
11152;DHT22;5630;49.342;10.802;2024-03-25T06:48:58;5.60;99.90
11152;DHT22;5630;49.342;10.802;2024-03-25T06:51:24;5.50;99.90
11152;DHT22;5630;49.342;10.802;2024-03-25T06:53:50;5.60;99.90
11152;DHT22;5630;49.342;10.802;2024-03-25T06:56:15;5.70;99.90
11152;DHT22;5630;49.342;10.802;2024-03-25T06:58:42;6.70;99.90
11152;DHT22;5630;49.342;10.802;2024-03-25T07:01:09;7.50;99.90
11152;DHT22;5630;49.342;10.802;2024-03-25T07:03:37;8.30;99.90
11152;DHT22;5630;49.342;10.802;2024-03-25T07:06:03;8.70;99.90
11152;DHT22;5630;49.342;10.802;2024-03-25T07:08:29;8.40;99.90
11152;DHT22;5630;49.342;10.802;2024-03-25T07:10:58;8.10;99.90
11152;DHT22;5630;49.342;10.802;2024-03-25T07:13:24;7.80;99.90
11152;DHT22;5630;49.342;10.802;2024-03-25T07:15:50;7.90;99.90
11152;DHT22;5630;49.342;10.802;2024-03-25T07:18:16;7.90;99.90
11152;DHT22;5630;49.342;10.802;2024-03-25T07:20:43;7.60;99.90
11152;DHT22;5630;49.342;10.802;2024-03-25T07:23:09;7.80;99.90
11152;DHT22;5630;49.342;10.802;2024-03-25T07:25:35;8.00;99.90
11152;DHT22;5630;49.342;10.802;2024-03-25T07:28:01;7.90;99.90
11152;DHT22;5630;49.342;10.802;2024-03-25T07:30:27;7.70;99.90
11152;DHT22;5630;49.342;10.802;2024-03-25T07:32:56;7.50;99.90
11152;DHT22;5630;49.342;10.802;2024-03-25T07:35:22;7.50;99.90
11152;DHT22;5630;49.342;10.802;2024-03-25T07:37:48;7.40;99.90
11152;DHT22;5630;49.342;10.802;2024-03-25T07:40:17;7.60;99.90
11152;DHT22;5630;49.342;10.802;2024-03-25T07:42:42;7.70;99.90
11152;DHT22;5630;49.342;10.802;2024-03-25T07:45:08;7.70;99.90
11152;DHT22;5630;49.342;10.802;2024-03-25T07:47:34;7.60;99.90
11152;DHT22;5630;49.342;10.802;2024-03-25T07:50:00;7.60;99.90
11152;DHT22;5630;49.342;10.802;2024-03-25T07:52:26;7.50;99.90
11152;DHT22;5630;49.342;10.802;2024-03-25T07:54:52;7.40;99.90
11152;DHT22;5630;49.342;10.802;2024-03-25T07:57:18;7.80;99.90
11152;DHT22;5630;49.342;10.802;2024-03-25T07:59:45;7.70;99.90
11152;DHT22;5630;49.342;10.802;2024-03-25T08:02:13;7.90;99.90
11152;DHT22;5630;49.342;10.802;2024-03-25T08:04:39;8.10;99.90
11152;DHT22;5630;49.342;10.802;2024-03-25T08:07:05;7.80;99.90
11152;DHT22;5630;49.342;10.802;2024-03-25T08:09:31;8.00;99.90
11152;DHT22;5630;49.342;10.802;2024-03-25T08:11:56;8.50;99.90
11152;DHT22;5630;49.342;10.802;2024-03-25T08:14:22;8.70;99.90
11152;DHT22;5630;49.342;10.802;2024-03-25T08:16:48;8.70;99.90
11152;DHT22;5630;49.342;10.802;2024-03-25T08:19:14;8.70;99.90
11152;DHT22;5630;49.342;10.802;2024-03-25T08:21:40;8.60;99.90
11152;DHT22;5630;49.342;10.802;2024-03-25T08:24:06;9.00;99.90
11152;DHT22;5630;49.342;10.802;2024-03-25T08:26:31;9.20;99.90
11152;DHT22;5630;49.342;10.802;2024-03-25T08:28:57;9.30;99.90
11152;DHT22;5630;49.342;10.802;2024-03-25T08:31:23;9.30;99.90
11152;DHT22;5630;49.342;10.802;2024-03-25T08:33:48;9.50;99.90
11152;DHT22;5630;49.342;10.802;2024-03-25T08:36:14;9.90;99.90
11152;DHT22;5630;49.342;10.802;2024-03-25T08:38:39;10.10;99.90
11152;DHT22;5630;49.342;10.802;2024-03-25T08:41:05;10.40;99.90
11152;DHT22;5630;49.342;10.802;2024-03-25T08:43:31;10.40;99.90
11152;DHT22;5630;49.342;10.802;2024-03-25T08:45:56;10.30;99.90
11152;DHT22;5630;49.342;10.802;2024-03-25T08:48:23;10.10;99.90
11152;DHT22;5630;49.342;10.802;2024-03-25T08:50:49;9.90;99.90
11152;DHT22;5630;49.342;10.802;2024-03-25T08:53:14;9.60;99.90
11152;DHT22;5630;49.342;10.802;2024-03-25T08:55:46;9.40;99.90
11152;DHT22;5630;49.342;10.802;2024-03-25T08:58:15;9.10;99.90
11152;DHT22;5630;49.342;10.802;2024-03-25T09:00:42;9.20;99.90
11152;DHT22;5630;49.342;10.802;2024-03-25T09:03:08;9.50;99.90
11152;DHT22;5630;49.342;10.802;2024-03-25T09:05:34;9.30;99.90
11152;DHT22;5630;49.342;10.802;2024-03-25T09:08:00;9.10;99.90
11152;DHT22;5630;49.342;10.802;2024-03-25T09:10:26;9.00;99.90
11152;DHT22;5630;49.342;10.802;2024-03-25T09:13:10;9.30;99.90
11152;DHT22;5630;49.342;10.802;2024-03-25T09:15:36;9.90;99.90
11152;DHT22;5630;49.342;10.802;2024-03-25T09:18:01;9.50;99.90
11152;DHT22;5630;49.342;10.802;2024-03-25T09:20:27;9.70;99.90
11152;DHT22;5630;49.342;10.802;2024-03-25T09:22:53;9.60;99.90
11152;DHT22;5630;49.342;10.802;2024-03-25T09:25:19;9.60;99.90
11152;DHT22;5630;49.342;10.802;2024-03-25T09:27:48;9.50;99.90
11152;DHT22;5630;49.342;10.802;2024-03-25T09:30:14;9.80;99.90
11152;DHT22;5630;49.342;10.802;2024-03-25T09:32:41;10.30;99.90
11152;DHT22;5630;49.342;10.802;2024-03-25T09:37:33;10.90;99.90
11152;DHT22;5630;49.342;10.802;2024-03-25T09:40:02;11.40;99.90
11152;DHT22;5630;49.342;10.802;2024-03-25T09:42:52;11.30;99.90
11152;DHT22;5630;49.342;10.802;2024-03-25T09:45:24;11.50;99.90
11152;DHT22;5630;49.342;10.802;2024-03-25T09:47:51;11.10;99.90
11152;DHT22;5630;49.342;10.802;2024-03-25T09:50:17;11.70;99.90
11152;DHT22;5630;49.342;10.802;2024-03-25T09:52:54;12.00;99.90
11152;DHT22;5630;49.342;10.802;2024-03-25T09:55:20;12.50;99.90
11152;DHT22;5630;49.342;10.802;2024-03-25T09:57:46;12.20;99.90
11152;DHT22;5630;49.342;10.802;2024-03-25T10:00:13;12.10;99.90
11152;DHT22;5630;49.342;10.802;2024-03-25T10:02:41;11.60;99.90
11152;DHT22;5630;49.342;10.802;2024-03-25T10:05:07;12.20;99.90
11152;DHT22;5630;49.342;10.802;2024-03-25T10:07:33;12.20;99.90
11152;DHT22;5630;49.342;10.802;2024-03-25T10:09:59;12.30;99.90
11152;DHT22;5630;49.342;10.802;2024-03-25T10:12:28;12.90;99.90
11152;DHT22;5630;49.342;10.802;2024-03-25T10:14:54;13.40;99.90
11152;DHT22;5630;49.342;10.802;2024-03-25T10:17:19;13.40;99.90
11152;DHT22;5630;49.342;10.802;2024-03-25T10:19:45;13.60;99.90
11152;DHT22;5630;49.342;10.802;2024-03-25T10:22:10;13.90;99.90
11152;DHT22;5630;49.342;10.802;2024-03-25T10:24:37;13.80;99.90
11152;DHT22;5630;49.342;10.802;2024-03-25T10:27:22;14.40;99.90
11152;DHT22;5630;49.342;10.802;2024-03-25T10:29:52;14.20;99.90
11152;DHT22;5630;49.342;10.802;2024-03-25T10:32:18;13.60;99.90
11152;DHT22;5630;49.342;10.802;2024-03-25T10:34:44;13.80;99.90
11152;DHT22;5630;49.342;10.802;2024-03-25T10:37:11;14.00;99.90
11152;DHT22;5630;49.342;10.802;2024-03-25T10:39:48;14.30;99.90
11152;DHT22;5630;49.342;10.802;2024-03-25T10:42:16;13.90;99.90
11152;DHT22;5630;49.342;10.802;2024-03-25T10:44:44;13.30;99.90
11152;DHT22;5630;49.342;10.802;2024-03-25T10:47:12;13.20;99.90
11152;DHT22;5630;49.342;10.802;2024-03-25T10:49:58;13.10;99.90
11152;DHT22;5630;49.342;10.802;2024-03-25T10:52:26;13.60;99.90
11152;DHT22;5630;49.342;10.802;2024-03-25T10:54:52;14.00;99.90
11152;DHT22;5630;49.342;10.802;2024-03-25T10:57:20;14.20;99.90
11152;DHT22;5630;49.342;10.802;2024-03-25T10:59:46;14.40;99.90
11152;DHT22;5630;49.342;10.802;2024-03-25T11:02:12;14.90;99.90
11152;DHT22;5630;49.342;10.802;2024-03-25T11:04:38;15.10;99.90
11152;DHT22;5630;49.342;10.802;2024-03-25T11:07:15;15.10;99.90
11152;DHT22;5630;49.342;10.802;2024-03-25T11:09:42;15.10;99.90
11152;DHT22;5630;49.342;10.802;2024-03-25T11:12:11;14.80;99.90
11152;DHT22;5630;49.342;10.802;2024-03-25T11:14:38;14.60;99.90
11152;DHT22;5630;49.342;10.802;2024-03-25T11:17:14;15.00;99.70
11152;DHT22;5630;49.342;10.802;2024-03-25T11:19:41;15.00;99.60
11152;DHT22;5630;49.342;10.802;2024-03-25T11:22:08;14.80;99.40
11152;DHT22;5630;49.342;10.802;2024-03-25T11:24:35;15.00;99.20
11152;DHT22;5630;49.342;10.802;2024-03-25T11:27:07;15.00;98.10
11152;DHT22;5630;49.342;10.802;2024-03-25T11:29:33;15.00;98.40
11152;DHT22;5630;49.342;10.802;2024-03-25T11:32:03;15.40;97.50
11152;DHT22;5630;49.342;10.802;2024-03-25T11:34:29;15.30;98.30
11152;DHT22;5630;49.342;10.802;2024-03-25T11:36:55;14.80;96.70
11152;DHT22;5630;49.342;10.802;2024-03-25T11:39:23;14.20;96.30
11152;DHT22;5630;49.342;10.802;2024-03-25T11:41:49;14.70;97.50
11152;DHT22;5630;49.342;10.802;2024-03-25T11:44:14;14.90;99.90
11152;DHT22;5630;49.342;10.802;2024-03-25T11:46:43;15.20;99.90
11152;DHT22;5630;49.342;10.802;2024-03-25T11:49:16;15.20;99.80
11152;DHT22;5630;49.342;10.802;2024-03-25T11:51:44;15.80;99.90
11152;DHT22;5630;49.342;10.802;2024-03-25T11:54:12;14.90;98.80
11152;DHT22;5630;49.342;10.802;2024-03-25T11:56:38;15.10;95.80
11152;DHT22;5630;49.342;10.802;2024-03-25T11:59:03;14.10;95.20
11152;DHT22;5630;49.342;10.802;2024-03-25T12:01:33;14.60;96.30
11152;DHT22;5630;49.342;10.802;2024-03-25T12:04:15;14.60;95.90
11152;DHT22;5630;49.342;10.802;2024-03-25T12:06:41;14.90;96.90
11152;DHT22;5630;49.342;10.802;2024-03-25T12:09:06;14.90;96.40
11152;DHT22;5630;49.342;10.802;2024-03-25T12:11:51;15.40;98.90
11152;DHT22;5630;49.342;10.802;2024-03-25T12:14:16;15.50;99.00
11152;DHT22;5630;49.342;10.802;2024-03-25T12:16:42;15.90;98.70
11152;DHT22;5630;49.342;10.802;2024-03-25T12:19:08;15.80;96.10
11152;DHT22;5630;49.342;10.802;2024-03-25T12:21:34;15.60;96.50
11152;DHT22;5630;49.342;10.802;2024-03-25T12:24:00;15.50;97.00
11152;DHT22;5630;49.342;10.802;2024-03-25T12:26:25;15.30;95.70
11152;DHT22;5630;49.342;10.802;2024-03-25T12:28:52;14.90;95.10
11152;DHT22;5630;49.342;10.802;2024-03-25T12:31:18;15.40;95.20
11152;DHT22;5630;49.342;10.802;2024-03-25T12:33:44;14.60;93.40
11152;DHT22;5630;49.342;10.802;2024-03-25T12:36:13;14.50;93.10
11152;DHT22;5630;49.342;10.802;2024-03-25T12:38:38;14.50;94.30
11152;DHT22;5630;49.342;10.802;2024-03-25T12:41:08;14.40;92.90
11152;DHT22;5630;49.342;10.802;2024-03-25T12:43:35;14.30;93.70
11152;DHT22;5630;49.342;10.802;2024-03-25T12:46:01;14.60;93.10
11152;DHT22;5630;49.342;10.802;2024-03-25T12:48:29;14.90;93.80
11152;DHT22;5630;49.342;10.802;2024-03-25T12:50:55;13.80;93.20
11152;DHT22;5630;49.342;10.802;2024-03-25T12:53:20;14.00;92.80
11152;DHT22;5630;49.342;10.802;2024-03-25T12:55:46;14.10;92.00
11152;DHT22;5630;49.342;10.802;2024-03-25T12:58:12;14.30;92.50
11152;DHT22;5630;49.342;10.802;2024-03-25T13:00:38;14.60;92.50
11152;DHT22;5630;49.342;10.802;2024-03-25T13:03:07;14.70;97.10
11152;DHT22;5630;49.342;10.802;2024-03-25T13:05:34;14.80;94.50
11152;DHT22;5630;49.342;10.802;2024-03-25T13:08:00;15.20;99.00
11152;DHT22;5630;49.342;10.802;2024-03-25T13:10:26;15.40;98.80
11152;DHT22;5630;49.342;10.802;2024-03-25T13:12:51;15.40;96.20
11152;DHT22;5630;49.342;10.802;2024-03-25T13:15:17;15.50;99.90
11152;DHT22;5630;49.342;10.802;2024-03-25T13:17:42;15.70;97.30
11152;DHT22;5630;49.342;10.802;2024-03-25T13:20:08;15.80;96.60
11152;DHT22;5630;49.342;10.802;2024-03-25T13:22:35;15.50;93.80
11152;DHT22;5630;49.342;10.802;2024-03-25T13:25:00;15.30;96.20
11152;DHT22;5630;49.342;10.802;2024-03-25T13:27:26;15.80;99.80
11152;DHT22;5630;49.342;10.802;2024-03-25T13:29:51;15.90;96.00
11152;DHT22;5630;49.342;10.802;2024-03-25T13:32:20;16.20;95.10
11152;DHT22;5630;49.342;10.802;2024-03-25T13:34:46;16.10;96.10
11152;DHT22;5630;49.342;10.802;2024-03-25T13:37:12;16.40;96.20
11152;DHT22;5630;49.342;10.802;2024-03-25T13:39:38;16.70;95.80
11152;DHT22;5630;49.342;10.802;2024-03-25T13:42:03;16.80;92.60
11152;DHT22;5630;49.342;10.802;2024-03-25T13:44:29;16.50;91.80
11152;DHT22;5630;49.342;10.802;2024-03-25T13:46:55;16.00;92.20
11152;DHT22;5630;49.342;10.802;2024-03-25T13:49:20;16.30;93.50
11152;DHT22;5630;49.342;10.802;2024-03-25T13:51:48;16.50;92.10
11152;DHT22;5630;49.342;10.802;2024-03-25T13:54:13;16.30;92.70
11152;DHT22;5630;49.342;10.802;2024-03-25T13:56:39;16.50;93.30
11152;DHT22;5630;49.342;10.802;2024-03-25T13:59:07;16.70;92.20
11152;DHT22;5630;49.342;10.802;2024-03-25T14:01:32;16.80;92.20
11152;DHT22;5630;49.342;10.802;2024-03-25T14:03:58;16.70;90.20
11152;DHT22;5630;49.342;10.802;2024-03-25T14:06:23;16.60;90.10
11152;DHT22;5630;49.342;10.802;2024-03-25T14:08:49;16.50;91.20
11152;DHT22;5630;49.342;10.802;2024-03-25T14:11:14;16.30;90.30
11152;DHT22;5630;49.342;10.802;2024-03-25T14:13:40;16.50;91.20
11152;DHT22;5630;49.342;10.802;2024-03-25T14:16:06;16.60;90.40
11152;DHT22;5630;49.342;10.802;2024-03-25T14:18:31;16.30;91.00
11152;DHT22;5630;49.342;10.802;2024-03-25T14:20:57;16.30;92.30
11152;DHT22;5630;49.342;10.802;2024-03-25T14:23:22;16.50;90.30
11152;DHT22;5630;49.342;10.802;2024-03-25T14:25:48;16.70;92.90
11152;DHT22;5630;49.342;10.802;2024-03-25T14:28:13;16.70;92.90
11152;DHT22;5630;49.342;10.802;2024-03-25T14:30:39;16.80;92.30
11152;DHT22;5630;49.342;10.802;2024-03-25T14:33:04;16.90;93.30
11152;DHT22;5630;49.342;10.802;2024-03-25T14:35:30;16.90;92.80
11152;DHT22;5630;49.342;10.802;2024-03-25T14:37:56;16.70;93.00
11152;DHT22;5630;49.342;10.802;2024-03-25T14:40:21;16.50;92.10
11152;DHT22;5630;49.342;10.802;2024-03-25T14:42:47;16.40;94.40
11152;DHT22;5630;49.342;10.802;2024-03-25T14:45:12;16.50;94.20
11152;DHT22;5630;49.342;10.802;2024-03-25T14:47:38;15.90;90.00
11152;DHT22;5630;49.342;10.802;2024-03-25T14:50:04;15.40;88.40
11152;DHT22;5630;49.342;10.802;2024-03-25T14:52:30;15.00;90.10
11152;DHT22;5630;49.342;10.802;2024-03-25T14:54:56;14.80;90.60
11152;DHT22;5630;49.342;10.802;2024-03-25T14:57:21;14.60;90.10
11152;DHT22;5630;49.342;10.802;2024-03-25T14:59:47;14.50;90.50
11152;DHT22;5630;49.342;10.802;2024-03-25T15:02:13;14.20;90.40
11152;DHT22;5630;49.342;10.802;2024-03-25T15:04:41;14.30;91.10
11152;DHT22;5630;49.342;10.802;2024-03-25T15:07:10;13.90;90.00
11152;DHT22;5630;49.342;10.802;2024-03-25T15:09:36;13.80;90.60
11152;DHT22;5630;49.342;10.802;2024-03-25T15:12:01;13.80;90.30
11152;DHT22;5630;49.342;10.802;2024-03-25T15:14:30;13.60;90.40
11152;DHT22;5630;49.342;10.802;2024-03-25T15:16:57;13.60;92.10
11152;DHT22;5630;49.342;10.802;2024-03-25T15:19:24;13.50;91.20
11152;DHT22;5630;49.342;10.802;2024-03-25T15:21:49;13.30;90.10
11152;DHT22;5630;49.342;10.802;2024-03-25T15:24:15;12.90;90.10
11152;DHT22;5630;49.342;10.802;2024-03-25T15:26:40;12.80;91.10
11152;DHT22;5630;49.342;10.802;2024-03-25T15:29:06;12.70;90.60
11152;DHT22;5630;49.342;10.802;2024-03-25T15:31:32;12.60;90.60
11152;DHT22;5630;49.342;10.802;2024-03-25T15:33:57;12.60;90.30
11152;DHT22;5630;49.342;10.802;2024-03-25T15:36:23;12.40;90.70
11152;DHT22;5630;49.342;10.802;2024-03-25T15:38:48;12.30;90.00